sensor_id;sensor_type;location;lat;lon;timestamp;temperature;humidity
71436;SHT31;59251;51.326;12.370;2023-02-17T00:01:49;7.63;89.01
71436;SHT31;59251;51.326;12.370;2023-02-17T00:04:14;7.59;89.39
71436;SHT31;59251;51.326;12.370;2023-02-17T00:06:39;7.34;90.55
71436;SHT31;59251;51.326;12.370;2023-02-17T00:09:05;7.44;90.39
71436;SHT31;59251;51.326;12.370;2023-02-17T00:11:30;7.53;89.72
71436;SHT31;59251;51.326;12.370;2023-02-17T00:13:55;7.40;90.18
71436;SHT31;59251;51.326;12.370;2023-02-17T00:16:22;7.52;89.74
71436;SHT31;59251;51.326;12.370;2023-02-17T00:18:53;7.53;89.49
71436;SHT31;59251;51.326;12.370;2023-02-17T00:21:20;7.56;89.47
71436;SHT31;59251;51.326;12.370;2023-02-17T00:23:47;7.56;89.83
71436;SHT31;59251;51.326;12.370;2023-02-17T00:26:14;7.69;89.53
71436;SHT31;59251;51.326;12.370;2023-02-17T00:28:40;7.63;89.18
71436;SHT31;59251;51.326;12.370;2023-02-17T00:31:12;7.66;89.35
71436;SHT31;59251;51.326;12.370;2023-02-17T00:33:38;7.75;88.56
71436;SHT31;59251;51.326;12.370;2023-02-17T00:36:05;7.73;88.86
71436;SHT31;59251;51.326;12.370;2023-02-17T00:38:31;7.80;88.48
71436;SHT31;59251;51.326;12.370;2023-02-17T00:40:57;7.69;88.92
71436;SHT31;59251;51.326;12.370;2023-02-17T00:43:22;7.82;89.06
71436;SHT31;59251;51.326;12.370;2023-02-17T00:45:48;7.67;88.98
71436;SHT31;59251;51.326;12.370;2023-02-17T00:48:13;7.78;88.35
71436;SHT31;59251;51.326;12.370;2023-02-17T00:50:38;7.85;88.46
71436;SHT31;59251;51.326;12.370;2023-02-17T00:53:04;7.82;88.12
71436;SHT31;59251;51.326;12.370;2023-02-17T00:55:29;7.91;88.01
71436;SHT31;59251;51.326;12.370;2023-02-17T00:57:54;8.05;87.75
71436;SHT31;59251;51.326;12.370;2023-02-17T01:00:20;7.84;87.95
71436;SHT31;59251;51.326;12.370;2023-02-17T01:02:45;8.05;87.33
71436;SHT31;59251;51.326;12.370;2023-02-17T01:05:11;7.94;87.58
71436;SHT31;59251;51.326;12.370;2023-02-17T01:07:36;8.05;86.72
71436;SHT31;59251;51.326;12.370;2023-02-17T01:10:03;7.98;87.22
71436;SHT31;59251;51.326;12.370;2023-02-17T01:12:29;8.06;86.78
71436;SHT31;59251;51.326;12.370;2023-02-17T01:14:54;8.11;86.51
71436;SHT31;59251;51.326;12.370;2023-02-17T01:17:20;8.21;86.80
71436;SHT31;59251;51.326;12.370;2023-02-17T01:19:45;8.11;87.26
71436;SHT31;59251;51.326;12.370;2023-02-17T01:22:10;7.99;86.88
71436;SHT31;59251;51.326;12.370;2023-02-17T01:24:37;8.13;86.87
71436;SHT31;59251;51.326;12.370;2023-02-17T01:27:03;7.97;87.61
71436;SHT31;59251;51.326;12.370;2023-02-17T01:29:28;7.92;87.99
71436;SHT31;59251;51.326;12.370;2023-02-17T01:31:54;8.05;86.99
71436;SHT31;59251;51.326;12.370;2023-02-17T01:34:19;8.01;86.97
71436;SHT31;59251;51.326;12.370;2023-02-17T01:36:45;7.99;87.15
71436;SHT31;59251;51.326;12.370;2023-02-17T01:39:13;8.16;86.14
71436;SHT31;59251;51.326;12.370;2023-02-17T01:41:38;8.29;85.87
71436;SHT31;59251;51.326;12.370;2023-02-17T01:44:08;8.22;85.48
71436;SHT31;59251;51.326;12.370;2023-02-17T01:46:35;8.22;85.82
71436;SHT31;59251;51.326;12.370;2023-02-17T01:49:03;8.28;85.13
71436;SHT31;59251;51.326;12.370;2023-02-17T01:51:33;8.24;85.37
71436;SHT31;59251;51.326;12.370;2023-02-17T01:54:08;8.39;85.13
71436;SHT31;59251;51.326;12.370;2023-02-17T01:56:38;8.48;84.79
71436;SHT31;59251;51.326;12.370;2023-02-17T01:59:09;8.60;84.45
71436;SHT31;59251;51.326;12.370;2023-02-17T02:01:37;8.64;84.09
71436;SHT31;59251;51.326;12.370;2023-02-17T02:04:04;8.53;84.31
71436;SHT31;59251;51.326;12.370;2023-02-17T02:06:32;8.67;84.07
71436;SHT31;59251;51.326;12.370;2023-02-17T02:09:08;8.63;84.58
71436;SHT31;59251;51.326;12.370;2023-02-17T02:11:34;8.66;84.21
71436;SHT31;59251;51.326;12.370;2023-02-17T02:14:01;8.49;84.68
71436;SHT31;59251;51.326;12.370;2023-02-17T02:16:38;8.35;85.36
71436;SHT31;59251;51.326;12.370;2023-02-17T02:21:48;8.61;84.52
71436;SHT31;59251;51.326;12.370;2023-02-17T02:24:36;8.64;84.64
71436;SHT31;59251;51.326;12.370;2023-02-17T02:29:57;8.52;85.46
71436;SHT31;59251;51.326;12.370;2023-02-17T02:32:47;8.64;85.10
71436;SHT31;59251;51.326;12.370;2023-02-17T02:38:02;8.71;84.75
71436;SHT31;59251;51.326;12.370;2023-02-17T02:40:33;8.70;84.89
71436;SHT31;59251;51.326;12.370;2023-02-17T02:43:01;8.76;84.78
71436;SHT31;59251;51.326;12.370;2023-02-17T02:45:27;8.76;84.83
71436;SHT31;59251;51.326;12.370;2023-02-17T02:47:54;8.80;84.62
71436;SHT31;59251;51.326;12.370;2023-02-17T02:50:44;8.78;85.17
71436;SHT31;59251;51.326;12.370;2023-02-17T02:56:08;8.80;85.23
71436;SHT31;59251;51.326;12.370;2023-02-17T02:58:48;8.74;85.40
71436;SHT31;59251;51.326;12.370;2023-02-17T03:04:18;8.85;85.49
71436;SHT31;59251;51.326;12.370;2023-02-17T03:07:02;8.90;85.18
71436;SHT31;59251;51.326;12.370;2023-02-17T03:09:29;8.92;85.24
71436;SHT31;59251;51.326;12.370;2023-02-17T03:11:56;8.96;85.07
71436;SHT31;59251;51.326;12.370;2023-02-17T03:14:22;8.70;85.90
71436;SHT31;59251;51.326;12.370;2023-02-17T03:16:48;8.98;85.02
71436;SHT31;59251;51.326;12.370;2023-02-17T03:19:16;8.94;84.78
71436;SHT31;59251;51.326;12.370;2023-02-17T03:21:51;8.80;85.49
71436;SHT31;59251;51.326;12.370;2023-02-17T03:24:18;8.98;84.95
71436;SHT31;59251;51.326;12.370;2023-02-17T03:26:43;8.61;86.32
71436;SHT31;59251;51.326;12.370;2023-02-17T03:29:09;8.77;85.95
71436;SHT31;59251;51.326;12.370;2023-02-17T03:31:34;8.98;84.95
71436;SHT31;59251;51.326;12.370;2023-02-17T03:34:00;8.90;85.54
71436;SHT31;59251;51.326;12.370;2023-02-17T03:36:25;8.97;85.18
71436;SHT31;59251;51.326;12.370;2023-02-17T03:38:51;8.87;85.66
71436;SHT31;59251;51.326;12.370;2023-02-17T03:41:16;8.83;85.98
71436;SHT31;59251;51.326;12.370;2023-02-17T03:43:41;8.97;85.74
71436;SHT31;59251;51.326;12.370;2023-02-17T03:46:11;8.91;86.32
71436;SHT31;59251;51.326;12.370;2023-02-17T03:48:37;8.90;86.20
71436;SHT31;59251;51.326;12.370;2023-02-17T03:51:13;8.76;87.14
71436;SHT31;59251;51.326;12.370;2023-02-17T03:53:40;8.88;86.91
71436;SHT31;59251;51.326;12.370;2023-02-17T03:56:06;8.69;87.53
71436;SHT31;59251;51.326;12.370;2023-02-17T03:58:31;8.98;87.29
71436;SHT31;59251;51.326;12.370;2023-02-17T04:00:57;8.85;87.72
71436;SHT31;59251;51.326;12.370;2023-02-17T04:03:22;8.92;87.87
71436;SHT31;59251;51.326;12.370;2023-02-17T04:05:48;9.03;87.67
71436;SHT31;59251;51.326;12.370;2023-02-17T04:08:13;9.11;87.60
71436;SHT31;59251;51.326;12.370;2023-02-17T04:10:38;9.12;87.62
71436;SHT31;59251;51.326;12.370;2023-02-17T04:13:04;8.92;88.52
71436;SHT31;59251;51.326;12.370;2023-02-17T04:15:29;9.04;88.24
71436;SHT31;59251;51.326;12.370;2023-02-17T04:17:54;9.05;88.39
71436;SHT31;59251;51.326;12.370;2023-02-17T04:20:20;9.08;88.31
71436;SHT31;59251;51.326;12.370;2023-02-17T04:22:45;9.00;88.94
71436;SHT31;59251;51.326;12.370;2023-02-17T04:25:11;9.14;88.35
71436;SHT31;59251;51.326;12.370;2023-02-17T04:27:37;9.04;88.71
71436;SHT31;59251;51.326;12.370;2023-02-17T04:30:03;9.08;88.48
71436;SHT31;59251;51.326;12.370;2023-02-17T04:32:28;9.10;88.70
71436;SHT31;59251;51.326;12.370;2023-02-17T04:34:53;9.07;89.03
71436;SHT31;59251;51.326;12.370;2023-02-17T04:37:19;9.11;88.98
71436;SHT31;59251;51.326;12.370;2023-02-17T04:39:44;9.01;89.01
71436;SHT31;59251;51.326;12.370;2023-02-17T04:42:09;9.19;88.22
71436;SHT31;59251;51.326;12.370;2023-02-17T04:44:35;9.15;88.47
71436;SHT31;59251;51.326;12.370;2023-02-17T04:47:00;9.18;88.19
71436;SHT31;59251;51.326;12.370;2023-02-17T04:49:25;9.14;88.14
71436;SHT31;59251;51.326;12.370;2023-02-17T04:51:51;9.12;88.54
71436;SHT31;59251;51.326;12.370;2023-02-17T04:54:16;9.28;87.89
71436;SHT31;59251;51.326;12.370;2023-02-17T04:56:42;9.01;88.74
71436;SHT31;59251;51.326;12.370;2023-02-17T04:59:07;9.14;88.47
71436;SHT31;59251;51.326;12.370;2023-02-17T05:01:32;8.97;88.71
71436;SHT31;59251;51.326;12.370;2023-02-17T05:03:57;9.05;88.37
71436;SHT31;59251;51.326;12.370;2023-02-17T05:06:23;9.01;88.03
71436;SHT31;59251;51.326;12.370;2023-02-17T05:08:48;9.22;87.29
71436;SHT31;59251;51.326;12.370;2023-02-17T05:11:15;9.19;87.54
71436;SHT31;59251;51.326;12.370;2023-02-17T05:13:40;9.04;88.15
71436;SHT31;59251;51.326;12.370;2023-02-17T05:16:05;9.07;87.78
71436;SHT31;59251;51.326;12.370;2023-02-17T05:18:31;9.01;88.25
71436;SHT31;59251;51.326;12.370;2023-02-17T05:20:56;9.01;87.99
71436;SHT31;59251;51.326;12.370;2023-02-17T05:23:22;9.10;87.93
71436;SHT31;59251;51.326;12.370;2023-02-17T05:25:47;9.18;87.39
71436;SHT31;59251;51.326;12.370;2023-02-17T05:28:13;9.08;87.50
71436;SHT31;59251;51.326;12.370;2023-02-17T05:30:38;9.21;87.54
71436;SHT31;59251;51.326;12.370;2023-02-17T05:33:03;9.11;87.56
71436;SHT31;59251;51.326;12.370;2023-02-17T05:35:29;9.05;87.87
71436;SHT31;59251;51.326;12.370;2023-02-17T05:37:54;9.11;88.00
71436;SHT31;59251;51.326;12.370;2023-02-17T05:40:19;9.26;87.52
71436;SHT31;59251;51.326;12.370;2023-02-17T05:42:45;9.15;87.93
71436;SHT31;59251;51.326;12.370;2023-02-17T05:45:10;9.17;88.10
71436;SHT31;59251;51.326;12.370;2023-02-17T05:47:36;9.15;88.23
71436;SHT31;59251;51.326;12.370;2023-02-17T05:50:02;9.36;87.56
71436;SHT31;59251;51.326;12.370;2023-02-17T05:52:27;9.42;87.36
71436;SHT31;59251;51.326;12.370;2023-02-17T05:54:53;9.32;88.03
71436;SHT31;59251;51.326;12.370;2023-02-17T05:57:18;9.46;87.74
71436;SHT31;59251;51.326;12.370;2023-02-17T05:59:43;9.50;87.68
71436;SHT31;59251;51.326;12.370;2023-02-17T06:02:09;9.46;87.80
71436;SHT31;59251;51.326;12.370;2023-02-17T06:04:34;9.52;87.85
71436;SHT31;59251;51.326;12.370;2023-02-17T06:07:00;9.45;88.04
71436;SHT31;59251;51.326;12.370;2023-02-17T06:09:25;9.55;87.92
71436;SHT31;59251;51.326;12.370;2023-02-17T06:11:50;9.50;88.22
71436;SHT31;59251;51.326;12.370;2023-02-17T06:14:16;9.66;87.76
71436;SHT31;59251;51.326;12.370;2023-02-17T06:16:41;9.69;87.62
71436;SHT31;59251;51.326;12.370;2023-02-17T06:19:07;9.70;87.72
71436;SHT31;59251;51.326;12.370;2023-02-17T06:21:32;9.67;87.64
71436;SHT31;59251;51.326;12.370;2023-02-17T06:23:57;9.69;87.75
71436;SHT31;59251;51.326;12.370;2023-02-17T06:26:23;9.79;87.39
71436;SHT31;59251;51.326;12.370;2023-02-17T06:28:48;9.74;87.50
71436;SHT31;59251;51.326;12.370;2023-02-17T06:31:13;9.70;87.51
71436;SHT31;59251;51.326;12.370;2023-02-17T06:33:39;9.77;87.51
71436;SHT31;59251;51.326;12.370;2023-02-17T06:36:04;9.76;87.49
71436;SHT31;59251;51.326;12.370;2023-02-17T06:38:30;9.69;87.74
71436;SHT31;59251;51.326;12.370;2023-02-17T06:40:55;9.76;87.87
71436;SHT31;59251;51.326;12.370;2023-02-17T06:43:21;9.77;87.84
71436;SHT31;59251;51.326;12.370;2023-02-17T06:45:46;9.82;87.84
71436;SHT31;59251;51.326;12.370;2023-02-17T06:48:11;9.74;88.59
71436;SHT31;59251;51.326;12.370;2023-02-17T06:50:37;9.79;88.20
71436;SHT31;59251;51.326;12.370;2023-02-17T06:53:03;9.74;88.20
71436;SHT31;59251;51.326;12.370;2023-02-17T06:55:28;9.80;88.21
71436;SHT31;59251;51.326;12.370;2023-02-17T06:57:54;9.77;88.37
71436;SHT31;59251;51.326;12.370;2023-02-17T07:00:19;9.76;88.69
71436;SHT31;59251;51.326;12.370;2023-02-17T07:02:45;9.86;88.24
71436;SHT31;59251;51.326;12.370;2023-02-17T07:05:10;9.95;88.07
71436;SHT31;59251;51.326;12.370;2023-02-17T07:07:36;9.87;88.11
71436;SHT31;59251;51.326;12.370;2023-02-17T07:10:01;9.83;88.51
71436;SHT31;59251;51.326;12.370;2023-02-17T07:12:28;9.98;88.24
71436;SHT31;59251;51.326;12.370;2023-02-17T07:14:53;9.98;88.01
71436;SHT31;59251;51.326;12.370;2023-02-17T07:17:19;9.90;88.48
71436;SHT31;59251;51.326;12.370;2023-02-17T07:19:44;9.80;88.82
71436;SHT31;59251;51.326;12.370;2023-02-17T07:22:10;9.91;88.80
71436;SHT31;59251;51.326;12.370;2023-02-17T07:24:35;10.03;88.05
71436;SHT31;59251;51.326;12.370;2023-02-17T07:27:00;10.07;87.76
71436;SHT31;59251;51.326;12.370;2023-02-17T07:29:26;10.07;88.04
71436;SHT31;59251;51.326;12.370;2023-02-17T07:31:52;10.08;88.01
71436;SHT31;59251;51.326;12.370;2023-02-17T07:34:17;9.98;88.04
71436;SHT31;59251;51.326;12.370;2023-02-17T07:36:43;9.98;88.38
71436;SHT31;59251;51.326;12.370;2023-02-17T07:39:08;9.94;88.05
71436;SHT31;59251;51.326;12.370;2023-02-17T07:41:33;10.17;87.58
71436;SHT31;59251;51.326;12.370;2023-02-17T07:43:59;10.14;87.62
71436;SHT31;59251;51.326;12.370;2023-02-17T07:46:25;10.05;87.17
71436;SHT31;59251;51.326;12.370;2023-02-17T07:48:50;10.04;87.66
71436;SHT31;59251;51.326;12.370;2023-02-17T07:51:21;9.90;88.38
71436;SHT31;59251;51.326;12.370;2023-02-17T07:53:47;9.89;88.04
71436;SHT31;59251;51.326;12.370;2023-02-17T07:56:14;9.97;88.00
71436;SHT31;59251;51.326;12.370;2023-02-17T07:58:41;10.18;87.01
71436;SHT31;59251;51.326;12.370;2023-02-17T08:01:12;10.00;87.20
71436;SHT31;59251;51.326;12.370;2023-02-17T08:03:38;9.98;87.34
71436;SHT31;59251;51.326;12.370;2023-02-17T08:06:08;10.03;87.35
71436;SHT31;59251;51.326;12.370;2023-02-17T08:08:33;10.00;87.17
71436;SHT31;59251;51.326;12.370;2023-02-17T08:11:17;10.14;87.11
71436;SHT31;59251;51.326;12.370;2023-02-17T08:14:01;9.84;88.02
71436;SHT31;59251;51.326;12.370;2023-02-17T08:16:27;10.20;87.19
71436;SHT31;59251;51.326;12.370;2023-02-17T08:18:53;10.22;87.24
71436;SHT31;59251;51.326;12.370;2023-02-17T08:21:23;10.24;87.02
71436;SHT31;59251;51.326;12.370;2023-02-17T08:23:49;10.38;87.32
71436;SHT31;59251;51.326;12.370;2023-02-17T08:26:14;10.41;87.33
71436;SHT31;59251;51.326;12.370;2023-02-17T08:28:41;10.28;87.56
71436;SHT31;59251;51.326;12.370;2023-02-17T08:31:21;10.40;87.59
71436;SHT31;59251;51.326;12.370;2023-02-17T08:33:47;10.40;87.38
71436;SHT31;59251;51.326;12.370;2023-02-17T08:36:13;10.48;87.07
71436;SHT31;59251;51.326;12.370;2023-02-17T08:38:39;10.46;87.10
71436;SHT31;59251;51.326;12.370;2023-02-17T08:41:32;10.82;86.12
71436;SHT31;59251;51.326;12.370;2023-02-17T08:44:00;10.32;87.19
71436;SHT31;59251;51.326;12.370;2023-02-17T08:46:27;10.41;87.42
71436;SHT31;59251;51.326;12.370;2023-02-17T08:48:52;10.62;86.87
71436;SHT31;59251;51.326;12.370;2023-02-17T08:51:20;10.77;85.87
71436;SHT31;59251;51.326;12.370;2023-02-17T08:53:49;10.95;85.25
71436;SHT31;59251;51.326;12.370;2023-02-17T08:56:15;10.58;86.56
71436;SHT31;59251;51.326;12.370;2023-02-17T08:58:40;10.61;86.14
71436;SHT31;59251;51.326;12.370;2023-02-17T09:01:06;10.72;86.07
71436;SHT31;59251;51.326;12.370;2023-02-17T09:03:36;10.41;86.42
71436;SHT31;59251;51.326;12.370;2023-02-17T09:06:05;10.40;86.52
71436;SHT31;59251;51.326;12.370;2023-02-17T09:08:30;10.62;86.53
71436;SHT31;59251;51.326;12.370;2023-02-17T09:10:56;10.59;86.82
71436;SHT31;59251;51.326;12.370;2023-02-17T09:13:22;10.66;86.54
71436;SHT31;59251;51.326;12.370;2023-02-17T09:15:47;10.41;87.10
71436;SHT31;59251;51.326;12.370;2023-02-17T09:18:14;10.70;86.24
71436;SHT31;59251;51.326;12.370;2023-02-17T09:20:39;10.46;87.38
71436;SHT31;59251;51.326;12.370;2023-02-17T09:23:05;10.51;87.37
71436;SHT31;59251;51.326;12.370;2023-02-17T09:25:31;10.65;85.94
71436;SHT31;59251;51.326;12.370;2023-02-17T09:27:56;10.76;86.39
71436;SHT31;59251;51.326;12.370;2023-02-17T09:30:22;10.90;85.83
71436;SHT31;59251;51.326;12.370;2023-02-17T09:32:47;10.89;86.17
71436;SHT31;59251;51.326;12.370;2023-02-17T09:35:14;10.83;86.55
71436;SHT31;59251;51.326;12.370;2023-02-17T09:37:39;10.97;85.95
71436;SHT31;59251;51.326;12.370;2023-02-17T09:40:06;11.10;85.81
71436;SHT31;59251;51.326;12.370;2023-02-17T09:42:36;11.03;85.68
71436;SHT31;59251;51.326;12.370;2023-02-17T09:45:31;11.20;85.51
71436;SHT31;59251;51.326;12.370;2023-02-17T09:48:00;11.23;85.67
71436;SHT31;59251;51.326;12.370;2023-02-17T09:50:56;11.01;85.71
71436;SHT31;59251;51.326;12.370;2023-02-17T09:55:58;11.10;85.80
71436;SHT31;59251;51.326;12.370;2023-02-17T09:58:34;11.09;85.40
71436;SHT31;59251;51.326;12.370;2023-02-17T10:01:03;10.99;85.33
71436;SHT31;59251;51.326;12.370;2023-02-17T10:03:35;11.06;85.47
71436;SHT31;59251;51.326;12.370;2023-02-17T10:06:28;11.16;85.32
71436;SHT31;59251;51.326;12.370;2023-02-17T10:09:21;11.21;85.27
71436;SHT31;59251;51.326;12.370;2023-02-17T10:11:55;11.20;85.38
71436;SHT31;59251;51.326;12.370;2023-02-17T10:17:07;10.97;87.70
71436;SHT31;59251;51.326;12.370;2023-02-17T10:19:38;10.93;87.69
71436;SHT31;59251;51.326;12.370;2023-02-17T10:22:21;10.89;87.37
71436;SHT31;59251;51.326;12.370;2023-02-17T10:24:46;10.99;87.51
71436;SHT31;59251;51.326;12.370;2023-02-17T10:27:23;10.95;88.37
71436;SHT31;59251;51.326;12.370;2023-02-17T10:33:20;10.89;88.63
71436;SHT31;59251;51.326;12.370;2023-02-17T10:35:49;11.03;87.73
71436;SHT31;59251;51.326;12.370;2023-02-17T10:41:14;11.21;86.62
71436;SHT31;59251;51.326;12.370;2023-02-17T10:43:41;11.18;86.39
71436;SHT31;59251;51.326;12.370;2023-02-17T10:46:07;11.44;85.36
71436;SHT31;59251;51.326;12.370;2023-02-17T10:48:39;11.51;84.72
71436;SHT31;59251;51.326;12.370;2023-02-17T10:51:13;11.55;84.36
71436;SHT31;59251;51.326;12.370;2023-02-17T10:53:39;11.66;84.13
71436;SHT31;59251;51.326;12.370;2023-02-17T10:56:14;11.76;83.72
71436;SHT31;59251;51.326;12.370;2023-02-17T11:01:19;11.57;84.35
71436;SHT31;59251;51.326;12.370;2023-02-17T11:03:45;11.79;83.83
71436;SHT31;59251;51.326;12.370;2023-02-17T11:06:16;11.83;83.88
71436;SHT31;59251;51.326;12.370;2023-02-17T11:08:50;11.74;83.84
71436;SHT31;59251;51.326;12.370;2023-02-17T11:11:19;11.66;84.12
71436;SHT31;59251;51.326;12.370;2023-02-17T11:16:31;12.07;82.92
71436;SHT31;59251;51.326;12.370;2023-02-17T11:18:57;12.05;82.84
71436;SHT31;59251;51.326;12.370;2023-02-17T11:21:23;12.00;83.33
71436;SHT31;59251;51.326;12.370;2023-02-17T11:23:52;12.03;83.58
71436;SHT31;59251;51.326;12.370;2023-02-17T11:26:24;11.92;83.89
71436;SHT31;59251;51.326;12.370;2023-02-17T11:28:50;12.06;83.60
71436;SHT31;59251;51.326;12.370;2023-02-17T11:31:27;12.03;83.76
71436;SHT31;59251;51.326;12.370;2023-02-17T11:33:53;12.19;83.39
71436;SHT31;59251;51.326;12.370;2023-02-17T11:36:30;12.17;83.67
71436;SHT31;59251;51.326;12.370;2023-02-17T11:38:56;12.14;83.59
71436;SHT31;59251;51.326;12.370;2023-02-17T11:41:23;12.30;83.43
71436;SHT31;59251;51.326;12.370;2023-02-17T11:43:53;12.34;83.28
71436;SHT31;59251;51.326;12.370;2023-02-17T11:51:37;12.51;83.00
71436;SHT31;59251;51.326;12.370;2023-02-17T11:54:23;12.61;83.13
71436;SHT31;59251;51.326;12.370;2023-02-17T11:57:05;12.50;83.62
71436;SHT31;59251;51.326;12.370;2023-02-17T12:16:10;12.95;83.16
71436;SHT31;59251;51.326;12.370;2023-02-17T12:30:18;13.12;82.82
71436;SHT31;59251;51.326;12.370;2023-02-17T12:35:53;13.10;82.95
71436;SHT31;59251;51.326;12.370;2023-02-17T12:38:33;13.02;83.63
71436;SHT31;59251;51.326;12.370;2023-02-17T12:41:18;12.98;83.56
71436;SHT31;59251;51.326;12.370;2023-02-17T12:43:49;13.05;83.14
71436;SHT31;59251;51.326;12.370;2023-02-17T12:46:22;13.12;82.73
71436;SHT31;59251;51.326;12.370;2023-02-17T12:51:35;13.08;82.82
71436;SHT31;59251;51.326;12.370;2023-02-17T12:59:36;13.05;83.18
71436;SHT31;59251;51.326;12.370;2023-02-17T13:02:11;12.91;83.69
71436;SHT31;59251;51.326;12.370;2023-02-17T13:04:37;13.06;83.29
71436;SHT31;59251;51.326;12.370;2023-02-17T13:09:35;13.12;83.05
71436;SHT31;59251;51.326;12.370;2023-02-17T13:14:49;13.20;82.62
71436;SHT31;59251;51.326;12.370;2023-02-17T13:17:29;13.13;82.85
71436;SHT31;59251;51.326;12.370;2023-02-17T13:22:39;13.19;82.85
71436;SHT31;59251;51.326;12.370;2023-02-17T13:25:06;13.26;82.60
71436;SHT31;59251;51.326;12.370;2023-02-17T13:27:35;13.19;82.65
71436;SHT31;59251;51.326;12.370;2023-02-17T13:30:07;13.15;82.75
71436;SHT31;59251;51.326;12.370;2023-02-17T13:32:36;13.09;83.01
71436;SHT31;59251;51.326;12.370;2023-02-17T13:37:41;13.19;82.45
71436;SHT31;59251;51.326;12.370;2023-02-17T13:42:43;13.22;82.49
71436;SHT31;59251;51.326;12.370;2023-02-17T13:47:52;13.22;82.49
71436;SHT31;59251;51.326;12.370;2023-02-17T13:50:43;13.30;82.27
71436;SHT31;59251;51.326;12.370;2023-02-17T13:55:53;13.29;82.47
71436;SHT31;59251;51.326;12.370;2023-02-17T13:59:04;13.37;82.01
71436;SHT31;59251;51.326;12.370;2023-02-17T14:01:21;13.40;82.00
71436;SHT31;59251;51.326;12.370;2023-02-17T14:03:54;13.43;82.02
71436;SHT31;59251;51.326;12.370;2023-02-17T14:06:28;13.56;81.60
71436;SHT31;59251;51.326;12.370;2023-02-17T14:08:54;13.63;81.16
71436;SHT31;59251;51.326;12.370;2023-02-17T14:11:23;13.66;81.15
71436;SHT31;59251;51.326;12.370;2023-02-17T14:13:51;13.70;80.95
71436;SHT31;59251;51.326;12.370;2023-02-17T14:16:37;13.82;80.83
71436;SHT31;59251;51.326;12.370;2023-02-17T14:19:15;13.84;80.65
71436;SHT31;59251;51.326;12.370;2023-02-17T14:21:56;14.04;80.31
71436;SHT31;59251;51.326;12.370;2023-02-17T14:24:27;14.24;79.59
71436;SHT31;59251;51.326;12.370;2023-02-17T14:27:02;14.63;78.27
71436;SHT31;59251;51.326;12.370;2023-02-17T14:29:44;14.73;77.84
71436;SHT31;59251;51.326;12.370;2023-02-17T14:32:35;15.12;76.61
71436;SHT31;59251;51.326;12.370;2023-02-17T14:37:36;15.50;75.41
71436;SHT31;59251;51.326;12.370;2023-02-17T14:40:04;15.65;74.97
71436;SHT31;59251;51.326;12.370;2023-02-17T14:42:29;15.55;75.39
71436;SHT31;59251;51.326;12.370;2023-02-17T14:44:55;15.45;75.57
71436;SHT31;59251;51.326;12.370;2023-02-17T14:47:20;15.48;75.39
71436;SHT31;59251;51.326;12.370;2023-02-17T14:49:45;15.41;75.87
71436;SHT31;59251;51.326;12.370;2023-02-17T14:52:18;15.39;75.73
71436;SHT31;59251;51.326;12.370;2023-02-17T14:54:44;15.28;75.79
71436;SHT31;59251;51.326;12.370;2023-02-17T14:57:11;14.95;77.04
71436;SHT31;59251;51.326;12.370;2023-02-17T14:59:38;14.67;77.85
71436;SHT31;59251;51.326;12.370;2023-02-17T15:02:11;14.53;78.23
71436;SHT31;59251;51.326;12.370;2023-02-17T15:04:37;14.39;78.77
71436;SHT31;59251;51.326;12.370;2023-02-17T15:07:02;14.33;79.02
71436;SHT31;59251;51.326;12.370;2023-02-17T15:09:28;14.18;79.39
71436;SHT31;59251;51.326;12.370;2023-02-17T15:11:55;14.29;79.49
71436;SHT31;59251;51.326;12.370;2023-02-17T15:14:20;14.24;79.46
71436;SHT31;59251;51.326;12.370;2023-02-17T15:16:47;14.25;79.44
71436;SHT31;59251;51.326;12.370;2023-02-17T15:19:14;14.29;79.66
71436;SHT31;59251;51.326;12.370;2023-02-17T15:21:45;14.12;80.07
71436;SHT31;59251;51.326;12.370;2023-02-17T15:24:15;14.24;79.81
71436;SHT31;59251;51.326;12.370;2023-02-17T15:26:40;14.24;79.84
71436;SHT31;59251;51.326;12.370;2023-02-17T15:29:13;14.12;79.92
71436;SHT31;59251;51.326;12.370;2023-02-17T15:31:39;14.21;79.80
71436;SHT31;59251;51.326;12.370;2023-02-17T15:34:07;14.26;79.69
71436;SHT31;59251;51.326;12.370;2023-02-17T15:36:34;14.15;79.91
71436;SHT31;59251;51.326;12.370;2023-02-17T15:38:59;14.12;80.05
71436;SHT31;59251;51.326;12.370;2023-02-17T15:41:26;14.15;80.16
71436;SHT31;59251;51.326;12.370;2023-02-17T15:43:53;14.19;80.11
71436;SHT31;59251;51.326;12.370;2023-02-17T15:46:22;14.16;80.25
71436;SHT31;59251;51.326;12.370;2023-02-17T15:48:49;14.14;80.32
71436;SHT31;59251;51.326;12.370;2023-02-17T15:51:16;14.06;80.57
71436;SHT31;59251;51.326;12.370;2023-02-17T15:53:44;14.08;80.33
71436;SHT31;59251;51.326;12.370;2023-02-17T15:56:15;14.19;79.79
71436;SHT31;59251;51.326;12.370;2023-02-17T15:58:41;14.18;79.90
71436;SHT31;59251;51.326;12.370;2023-02-17T16:01:15;14.16;79.69
71436;SHT31;59251;51.326;12.370;2023-02-17T16:03:40;14.15;79.70
71436;SHT31;59251;51.326;12.370;2023-02-17T16:06:06;14.15;79.76
71436;SHT31;59251;51.326;12.370;2023-02-17T16:08:31;14.15;79.64
71436;SHT31;59251;51.326;12.370;2023-02-17T16:10:57;14.16;79.72
71436;SHT31;59251;51.326;12.370;2023-02-17T16:13:25;14.14;79.66
71436;SHT31;59251;51.326;12.370;2023-02-17T16:15:52;14.11;79.93
71436;SHT31;59251;51.326;12.370;2023-02-17T16:18:21;14.15;79.85
71436;SHT31;59251;51.326;12.370;2023-02-17T16:20:48;14.04;80.26
71436;SHT31;59251;51.326;12.370;2023-02-17T16:23:13;14.01;80.66
71436;SHT31;59251;51.326;12.370;2023-02-17T16:25:41;14.00;80.57
71436;SHT31;59251;51.326;12.370;2023-02-17T16:28:15;13.97;80.64
71436;SHT31;59251;51.326;12.370;2023-02-17T16:30:41;13.91;80.85
71436;SHT31;59251;51.326;12.370;2023-02-17T16:33:08;14.02;80.49
71436;SHT31;59251;51.326;12.370;2023-02-17T16:35:34;14.05;80.57
71436;SHT31;59251;51.326;12.370;2023-02-17T16:38:02;14.08;80.48
71436;SHT31;59251;51.326;12.370;2023-02-17T16:40:30;14.14;80.29
71436;SHT31;59251;51.326;12.370;2023-02-17T16:42:56;14.15;80.49
71436;SHT31;59251;51.326;12.370;2023-02-17T16:45:24;14.12;80.59
71436;SHT31;59251;51.326;12.370;2023-02-17T16:47:52;14.08;80.99
71436;SHT31;59251;51.326;12.370;2023-02-17T16:50:31;13.97;82.00
71436;SHT31;59251;51.326;12.370;2023-02-17T16:52:59;13.82;83.38
71436;SHT31;59251;51.326;12.370;2023-02-17T16:55:31;13.44;85.97
71436;SHT31;59251;51.326;12.370;2023-02-17T16:57:57;13.16;88.09
71436;SHT31;59251;51.326;12.370;2023-02-17T17:00:26;12.98;90.11
71436;SHT31;59251;51.326;12.370;2023-02-17T17:02:52;12.77;92.37
71436;SHT31;59251;51.326;12.370;2023-02-17T17:05:18;12.51;94.10
71436;SHT31;59251;51.326;12.370;2023-02-17T17:07:44;12.26;96.18